Time;durP1;ratioP1;P1;durP2;ratioP2;P2;SDS_P1;SDS_P2;PMS_P1;PMS_P2;Temp;Humidity;BMP_temperature;BMP_pressure;BME280_temperature;BME280_humidity;BME280_pressure;Samples;Min_cycle;Max_cycle;Signal;HPM_P1;HPM_P2
2023/08/04 04:05:56;;;;;;;0.70;0.70;;;14.40;99.90;;;;;;5422473;22;20505;-60
2023/08/04 04:08:21;;;;;;;0.70;0.60;;;14.40;99.90;;;;;;4974621;28;20498;-60
2023/08/04 04:10:50;;;;;;;2.80;1.03;;;14.40;99.90;;;;;;4974625;28;20589;-60
2023/08/04 04:13:15;;;;;;;1.43;0.90;;;14.40;99.90;;;;;;4974482;28;20179;-60
2023/08/04 04:15:41;;;;;;;0.70;0.60;;;14.40;99.90;;;;;;4974206;28;20441;-60
2023/08/04 04:18:06;;;;;;;0.97;0.97;;;14.40;99.90;;;;;;4974450;28;20183;-60
2023/08/04 04:20:32;;;;;;;0.80;0.80;;;14.40;99.90;;;;;;4974584;28;20311;-61
2023/08/04 04:22:57;;;;;;;0.70;0.70;;;14.40;99.90;;;;;;4974308;28;20223;-60
2023/08/04 04:25:23;;;;;;;0.80;0.80;;;14.40;99.90;;;;;;4974023;28;20676;-60
2023/08/04 04:27:48;;;;;;;0.97;0.97;;;14.40;99.90;;;;;;4974286;28;20262;-60
2023/08/04 04:30:14;;;;;;;1.13;1.13;;;14.50;99.90;;;;;;4974568;28;20188;-60
2023/08/04 04:32:40;;;;;;;1.00;1.00;;;14.50;99.90;;;;;;4974418;28;20187;-60
2023/08/04 04:35:06;;;;;;;0.63;0.63;;;14.60;99.90;;;;;;4973117;28;20208;-60
2023/08/04 04:37:31;;;;;;;1.73;1.10;;;14.70;99.90;;;;;;4974339;28;20190;-60
2023/08/04 04:39:57;;;;;;;1.20;1.10;;;14.80;99.90;;;;;;4974270;28;20423;-60
2023/08/04 04:42:22;;;;;;;1.33;1.07;;;14.80;99.90;;;;;;4974785;28;20211;-60
2023/08/04 04:44:48;;;;;;;0.70;0.70;;;14.90;99.90;;;;;;4974062;28;20247;-60
2023/08/04 04:47:14;;;;;;;0.80;0.80;;;15.10;99.90;;;;;;4976701;28;20172;-60
2023/08/04 04:49:40;;;;;;;3.00;1.43;;;15.20;99.90;;;;;;4978146;28;20460;-60
2023/08/04 04:52:06;;;;;;;1.17;1.03;;;15.30;99.90;;;;;;4977923;28;20438;-60
2023/08/04 04:54:31;;;;;;;0.80;0.80;;;15.40;99.90;;;;;;4977563;28;20673;-61
2023/08/04 04:56:57;;;;;;;2.13;1.07;;;15.40;99.90;;;;;;4977883;28;20419;-60
2023/08/04 04:59:22;;;;;;;0.90;0.90;;;15.50;99.90;;;;;;4977856;28;20511;-59
2023/08/04 05:01:48;;;;;;;0.60;0.60;;;15.50;99.90;;;;;;4977755;28;20606;-61
2023/08/04 05:04:13;;;;;;;0.77;0.77;;;15.40;99.90;;;;;;4977495;28;20168;-60
2023/08/04 05:06:39;;;;;;;0.77;0.77;;;15.40;99.90;;;;;;4977458;28;20305;-60
2023/08/04 05:09:05;;;;;;;0.70;0.70;;;15.40;99.90;;;;;;4960406;28;20180;-59
2023/08/04 05:11:30;;;;;;;0.60;0.60;;;15.40;99.90;;;;;;4977978;28;20192;-60
2023/08/04 05:13:57;;;;;;;1.70;0.90;;;15.40;99.90;;;;;;4977345;28;20176;-60
2023/08/04 05:16:22;;;;;;;1.00;0.90;;;15.50;99.90;;;;;;4977471;28;20250;-60
2023/08/04 05:18:48;;;;;;;0.80;0.80;;;15.60;99.90;;;;;;4977568;28;20435;-60
2023/08/04 05:21:13;;;;;;;0.90;0.87;;;15.60;99.90;;;;;;4977603;28;20623;-58
2023/08/04 05:23:39;;;;;;;0.60;0.60;;;15.70;99.90;;;;;;4977251;28;20570;-60
2023/08/04 05:26:05;;;;;;;0.83;0.83;;;15.70;99.90;;;;;;4977134;28;20193;-60
2023/08/04 05:28:32;;;;;;;0.93;0.77;;;15.80;99.90;;;;;;4977297;28;20172;-61
2023/08/04 05:31:03;;;;;;;0.73;0.73;;;15.80;99.90;;;;;;4977246;28;20177;-60
2023/08/04 05:33:29;;;;;;;1.23;1.23;;;15.80;99.90;;;;;;4977324;28;20426;-59
2023/08/04 05:35:56;;;;;;;0.70;0.70;;;15.90;99.90;;;;;;4977108;28;20532;-60
2023/08/04 05:38:22;;;;;;;0.90;0.87;;;15.90;99.90;;;;;;4977269;28;20423;-61
2023/08/04 05:40:49;;;;;;;0.73;0.63;;;15.90;99.90;;;;;;4977102;28;20444;-61
2023/08/04 05:43:15;;;;;;;0.80;0.77;;;15.90;99.90;;;;;;4959571;28;20452;-61
2023/08/04 05:45:47;;;;;;;0.80;0.80;;;15.90;99.90;;;;;;4976626;28;20488;-60
2023/08/04 05:48:12;;;;;;;1.73;0.83;;;16.00;99.90;;;;;;4977171;28;20472;-61
2023/08/04 05:50:38;;;;;;;0.70;0.70;;;16.10;99.90;;;;;;4976976;28;20882;-60
2023/08/04 05:53:04;;;;;;;0.67;0.67;;;16.10;99.90;;;;;;4976956;28;20190;-59
2023/08/04 05:55:29;;;;;;;1.33;0.70;;;16.20;99.90;;;;;;4976380;28;20730;-58
2023/08/04 05:57:56;;;;;;;0.90;0.90;;;16.40;99.90;;;;;;4976145;28;20533;-60
2023/08/04 06:00:22;;;;;;;1.47;1.00;;;16.50;99.90;;;;;;4976777;28;20209;-60
2023/08/04 06:02:47;;;;;;;0.80;0.80;;;16.60;99.90;;;;;;4976629;28;20483;-60
2023/08/04 06:05:13;;;;;;;1.63;1.53;;;16.70;99.90;;;;;;4976315;28;20450;-60
2023/08/04 06:07:40;;;;;;;2.80;0.80;;;16.70;99.90;;;;;;4976315;28;20191;-61
2023/08/04 06:10:06;;;;;;;1.60;1.20;;;16.70;99.90;;;;;;4976658;28;20173;-60
2023/08/04 06:12:32;;;;;;;7.83;1.27;;;16.60;99.90;;;;;;4976514;28;20400;-61
2023/08/04 06:14:57;;;;;;;0.80;0.80;;;16.60;99.90;;;;;;4975879;28;20436;-60
2023/08/04 06:17:23;;;;;;;0.70;0.70;;;16.60;99.90;;;;;;4976428;28;20187;-59
2023/08/04 06:19:49;;;;;;;0.83;0.83;;;16.70;99.90;;;;;;4976303;28;20210;-60
2023/08/04 06:22:15;;;;;;;0.67;0.67;;;16.80;99.90;;;;;;4976111;28;20574;-60
2023/08/04 06:24:41;;;;;;;0.90;0.90;;;17.00;99.90;;;;;;4976072;28;20502;-60
2023/08/04 06:27:07;;;;;;;0.80;0.80;;;17.20;99.90;;;;;;4976194;28;20498;-60
2023/08/04 06:29:34;;;;;;;0.63;0.63;;;17.40;99.90;;;;;;4976058;28;20496;-58
2023/08/04 06:31:59;;;;;;;0.70;0.70;;;17.60;99.90;;;;;;4958762;28;20427;-60
2023/08/04 06:34:25;;;;;;;0.80;0.77;;;17.90;99.90;;;;;;4975631;28;20397;-59
2023/08/04 06:36:50;;;;;;;0.77;0.77;;;18.00;99.90;;;;;;4976066;28;20183;-60
2023/08/04 06:39:16;;;;;;;0.70;0.70;;;18.10;99.90;;;;;;4976151;28;20191;-59
2023/08/04 06:41:42;;;;;;;0.60;0.60;;;18.20;99.90;;;;;;4975966;28;20210;-61
2023/08/04 06:44:08;;;;;;;0.83;0.83;;;18.20;99.90;;;;;;4958262;28;20230;-59
2023/08/04 06:46:33;;;;;;;0.83;0.83;;;18.20;99.90;;;;;;4975549;28;20200;-70
2023/08/04 06:48:59;;;;;;;0.60;0.60;;;18.20;99.90;;;;;;4975754;28;20512;-67
2023/08/04 06:51:25;;;;;;;0.60;0.53;;;18.20;99.90;;;;;;4975604;28;20416;-67
2023/08/04 06:53:50;;;;;;;0.60;0.60;;;18.20;99.90;;;;;;4975402;28;20176;-69
2023/08/04 06:56:17;;;;;;;1.07;1.00;;;18.20;99.90;;;;;;4975605;28;20200;-68
2023/08/04 06:58:43;;;;;;;0.60;0.60;;;18.30;99.90;;;;;;4975605;28;20180;-62
2023/08/04 07:01:08;;;;;;;0.97;0.87;;;18.50;99.90;;;;;;4975422;28;20430;-60
2023/08/04 07:03:34;;;;;;;0.80;0.67;;;18.60;99.90;;;;;;4975223;28;20678;-62
2023/08/04 07:06:01;;;;;;;0.70;0.60;;;18.60;99.90;;;;;;4975002;28;20740;-62
2023/08/04 07:08:27;;;;;;;1.30;0.50;;;18.80;99.90;;;;;;4957692;28;20439;-61
2023/08/04 07:10:52;;;;;;;3.60;0.70;;;19.00;99.90;;;;;;4975095;28;20538;-61
2023/08/04 07:13:18;;;;;;;0.87;0.60;;;19.30;99.90;;;;;;4975201;28;20231;-61
2023/08/04 07:15:59;;;;;;;1.43;0.60;;;19.70;99.90;;;;;;4974886;28;20200;-62
2023/08/04 07:18:25;;;;;;;0.60;0.60;;;20.10;99.90;;;;;;4975140;28;20178;-62
2023/08/04 07:20:51;;;;;;;2.20;0.70;;;20.50;99.90;;;;;;4975242;28;20399;-61
2023/08/04 07:23:16;;;;;;;0.50;0.50;;;20.80;99.90;;;;;;4975016;28;20438;-62
2023/08/04 07:25:58;;;;;;;0.40;0.40;;;21.10;99.90;;;;;;4974662;28;20202;-62
2023/08/04 07:28:45;;;;;;;0.80;0.50;;;21.50;99.90;;;;;;4974682;28;20187;-62
2023/08/04 07:31:11;;;;;;;0.70;0.60;;;22.00;99.90;;;;;;4975132;28;20480;-62
2023/08/04 07:33:37;;;;;;;0.40;0.40;;;22.30;99.90;;;;;;4974726;28;20830;-62
2023/08/04 07:36:04;;;;;;;0.50;0.50;;;22.60;99.90;;;;;;4974672;28;20192;-61
2023/08/04 07:38:30;;;;;;;2.60;0.90;;;22.80;99.90;;;;;;4974476;28;20411;-62
2023/08/04 07:40:56;;;;;;;0.40;0.40;;;23.00;99.90;;;;;;4974600;28;20498;-62
2023/08/04 07:43:22;;;;;;;1.23;0.60;;;23.00;99.70;;;;;;4957292;28;20516;-62
2023/08/04 07:45:48;;;;;;;0.60;0.60;;;22.80;99.80;;;;;;4974238;28;20403;-62
2023/08/04 07:48:14;;;;;;;0.77;0.60;;;22.60;99.90;;;;;;4974601;28;20433;-62
2023/08/04 07:50:41;;;;;;;0.40;0.37;;;22.50;99.90;;;;;;4974594;28;20176;-62
2023/08/04 07:53:07;;;;;;;0.40;0.40;;;22.60;99.90;;;;;;4974563;28;20184;-62
2023/08/04 07:55:36;;;;;;;0.83;0.77;;;23.10;99.90;;;;;;4974257;28;20798;-62
2023/08/04 07:58:09;;;;;;;0.87;0.50;;;23.30;99.90;;;;;;4974605;28;20186;-62
2023/08/04 08:00:35;;;;;;;0.60;0.60;;;23.60;98.40;;;;;;4957160;28;20481;-62
2023/08/04 08:03:01;;;;;;;0.40;0.40;;;23.90;99.10;;;;;;4974472;28;20920;-62
2023/08/04 08:05:26;;;;;;;0.57;0.57;;;24.50;98.60;;;;;;4973913;28;20527;-63
2023/08/04 08:07:52;;;;;;;0.60;0.50;;;25.30;98.30;;;;;;4974272;28;20188;-63
2023/08/04 08:10:18;;;;;;;0.67;0.60;;;26.00;96.20;;;;;;4974645;28;20168;-62
2023/08/04 08:12:43;;;;;;;0.83;0.83;;;26.10;94.20;;;;;;4974064;28;20554;-62
2023/08/04 08:15:09;;;;;;;0.67;0.50;;;25.90;94.00;;;;;;4973818;28;20223;-61
2023/08/04 08:17:37;;;;;;;0.70;0.60;;;25.80;94.00;;;;;;4974005;28;20192;-61
2023/08/04 08:20:03;;;;;;;0.50;0.50;;;25.70;94.90;;;;;;4973857;28;20413;-61
2023/08/04 08:22:28;;;;;;;0.70;0.67;;;26.00;93.70;;;;;;4948954;28;20871;-62
2023/08/04 08:24:55;;;;;;;0.73;0.73;;;26.60;93.30;;;;;;4977389;28;20422;-62
2023/08/04 08:27:20;;;;;;;1.87;0.70;;;27.40;91.90;;;;;;4978255;28;20186;-62
2023/08/04 08:29:47;;;;;;;0.70;0.70;;;28.30;91.20;;;;;;4977992;28;20408;-62
2023/08/04 08:32:13;;;;;;;0.70;0.70;;;29.30;90.20;;;;;;4978003;28;20226;-62
2023/08/04 08:34:38;;;;;;;1.03;0.80;;;30.30;87.50;;;;;;4977171;28;20455;-62
2023/08/04 08:37:08;;;;;;;1.23;0.83;;;30.90;84.40;;;;;;4977857;28;20342;-62
2023/08/04 08:39:33;;;;;;;0.83;0.60;;;31.10;81.30;;;;;;4960127;28;20184;-62
2023/08/04 08:41:59;;;;;;;0.77;0.77;;;30.50;81.50;;;;;;4978599;28;20466;-63
2023/08/04 08:44:25;;;;;;;0.60;0.60;;;30.30;83.20;;;;;;4977080;28;20634;-62
2023/08/04 08:46:51;;;;;;;2.70;1.03;;;30.00;82.70;;;;;;4960640;28;20449;-61
2023/08/04 08:49:23;;;;;;;0.80;0.80;;;29.10;84.50;;;;;;4977814;28;20711;-62
2023/08/04 08:51:52;;;;;;;0.70;0.70;;;28.50;84.90;;;;;;4977846;28;20437;-61
2023/08/04 08:54:18;;;;;;;1.47;0.80;;;28.10;86.10;;;;;;4976780;28;20925;-61
2023/08/04 08:56:45;;;;;;;0.50;0.50;;;27.60;89.30;;;;;;4977558;28;20485;-61
2023/08/04 08:59:10;;;;;;;0.50;0.50;;;27.20;89.50;;;;;;4977850;28;20481;-63
2023/08/04 09:01:37;;;;;;;0.53;0.53;;;27.00;90.20;;;;;;4978071;28;20528;-62
2023/08/04 09:04:03;;;;;;;0.60;0.50;;;26.80;90.50;;;;;;4959788;28;20669;-61
2023/08/04 09:06:28;;;;;;;0.70;0.60;;;26.80;90.80;;;;;;4977480;28;20482;-61
2023/08/04 09:08:54;;;;;;;0.60;0.60;;;26.90;90.50;;;;;;4977690;28;20477;-62
2023/08/04 09:11:20;;;;;;;0.60;0.60;;;27.30;90.70;;;;;;4977619;28;20176;-62
2023/08/04 09:13:46;;;;;;;0.70;0.70;;;27.70;90.50;;;;;;4976860;28;20180;-62
2023/08/04 09:16:12;;;;;;;0.60;0.60;;;27.90;90.40;;;;;;4977452;28;20446;-62
2023/08/04 09:18:39;;;;;;;1.00;0.70;;;28.20;90.40;;;;;;4977488;28;20185;-62
2023/08/04 09:21:07;;;;;;;0.90;0.90;;;28.80;88.60;;;;;;4977723;28;20415;-62
2023/08/04 09:23:54;;;;;;;0.60;0.60;;;29.30;87.50;;;;;;4959526;28;20440;-63
2023/08/04 09:26:19;;;;;;;0.83;0.73;;;30.40;87.00;;;;;;4977462;28;20456;-62
2023/08/04 09:28:47;;;;;;;0.77;0.77;;;30.90;82.40;;;;;;4976931;28;20398;-62
2023/08/04 09:31:14;;;;;;;1.13;1.00;;;30.90;81.80;;;;;;4977046;28;20672;-62
2023/08/04 09:33:41;;;;;;;0.60;0.60;;;30.80;81.50;;;;;;4976395;28;20422;-63
2023/08/04 09:36:12;;;;;;;1.30;0.67;;;30.50;81.60;;;;;;4977068;28;21191;-62
2023/08/04 09:38:39;;;;;;;2.30;0.70;;;30.20;82.50;;;;;;4976921;28;20426;-63
2023/08/04 09:41:07;;;;;;;0.73;0.70;;;30.20;81.50;;;;;;4977142;28;20407;-64
2023/08/04 09:43:33;;;;;;;1.53;0.90;;;29.80;83.50;;;;;;4977017;28;20589;-62
2023/08/04 09:46:06;;;;;;;0.90;0.90;;;29.90;83.50;;;;;;4976832;28;20451;-63
2023/08/04 09:48:32;;;;;;;0.70;0.70;;;29.70;82.00;;;;;;4976516;28;20401;-62
2023/08/04 09:51:11;;;;;;;0.70;0.70;;;29.50;83.10;;;;;;4977448;28;20416;-62
2023/08/04 09:53:43;;;;;;;1.13;0.77;;;30.10;82.50;;;;;;4959421;28;20526;-62
2023/08/04 09:56:10;;;;;;;0.90;0.90;;;31.00;80.70;;;;;;4976749;28;20502;-63
2023/08/04 09:58:37;;;;;;;0.70;0.70;;;31.90;79.40;;;;;;4976502;28;20399;-63
2023/08/04 10:01:03;;;;;;;0.60;0.60;;;32.50;78.30;;;;;;4976811;28;20761;-63
2023/08/04 10:03:29;;;;;;;1.43;0.80;;;32.30;77.30;;;;;;4976755;28;20487;-63
2023/08/04 10:06:00;;;;;;;1.33;0.83;;;31.60;78.10;;;;;;4976207;28;20451;-63
2023/08/04 10:08:29;;;;;;;1.33;0.93;;;31.40;76.30;;;;;;4976495;28;20424;-63
2023/08/04 10:10:56;;;;;;;1.50;0.60;;;31.20;76.80;;;;;;4976615;28;20412;-63
2023/08/04 10:13:22;;;;;;;1.10;1.10;;;31.20;77.00;;;;;;4976497;28;20412;-63
2023/08/04 10:15:48;;;;;;;0.70;0.70;;;31.00;78.10;;;;;;4975983;28;20443;-63
2023/08/04 10:18:14;;;;;;;1.63;0.90;;;31.10;81.60;;;;;;4976099;28;20420;-63
2023/08/04 10:20:39;;;;;;;0.70;0.70;;;31.30;78.00;;;;;;4976422;28;20184;-63
2023/08/04 10:23:05;;;;;;;0.70;0.70;;;31.20;76.10;;;;;;4976174;28;20657;-62
2023/08/04 10:25:30;;;;;;;0.73;0.70;;;30.40;77.50;;;;;;4975914;28;20200;-62
2023/08/04 10:27:57;;;;;;;0.70;0.70;;;29.00;81.40;;;;;;4976308;28;20564;-62
2023/08/04 10:30:26;;;;;;;0.73;0.73;;;28.00;84.50;;;;;;4975858;28;20212;-62
2023/08/04 10:33:07;;;;;;;1.00;0.80;;;27.40;87.70;;;;;;4976123;28;20451;-61
2023/08/04 10:35:32;;;;;;;1.00;0.77;;;27.10;89.70;;;;;;4975817;28;20421;-62
2023/08/04 10:37:59;;;;;;;0.53;0.53;;;26.70;90.20;;;;;;4976144;28;20386;-62
2023/08/04 10:40:29;;;;;;;0.70;0.70;;;26.60;91.70;;;;;;4975758;28;20188;-62
2023/08/04 10:43:06;;;;;;;1.47;0.80;;;26.80;91.20;;;;;;4976013;28;20442;-62
2023/08/04 10:45:54;;;;;;;0.67;0.63;;;27.10;91.20;;;;;;4956148;28;20406;-62
2023/08/04 10:48:21;;;;;;;0.80;0.70;;;27.50;91.10;;;;;;4955378;29;20453;-62
2023/08/04 10:50:49;;;;;;;0.73;0.73;;;27.50;90.20;;;;;;4956650;28;20430;-62
2023/08/04 10:53:15;;;;;;;0.60;0.60;;;27.20;90.40;;;;;;4956655;28;20417;-63
2023/08/04 10:55:54;;;;;;;0.90;0.80;;;27.00;90.20;;;;;;4975197;28;20487;-62
2023/08/04 10:58:21;;;;;;;0.50;0.50;;;26.60;90.80;;;;;;4975769;28;20736;-62
2023/08/04 11:00:47;;;;;;;0.63;0.63;;;26.30;91.50;;;;;;4975749;28;20411;-62
2023/08/04 11:03:19;;;;;;;0.50;0.50;;;25.80;92.00;;;;;;4958316;28;20924;-62
2023/08/04 11:05:45;;;;;;;0.50;0.50;;;25.50;93.10;;;;;;4955735;28;20208;-62
2023/08/04 11:08:12;;;;;;;0.60;0.60;;;25.30;93.60;;;;;;4971310;28;20804;-62
2023/08/04 11:10:45;;;;;;;0.50;0.50;;;25.10;94.10;;;;;;4975773;28;20436;-61
2023/08/04 11:13:11;;;;;;;0.40;0.40;;;24.80;94.30;;;;;;4976701;28;20895;-61
2023/08/04 11:15:43;;;;;;;0.60;0.60;;;24.60;94.60;;;;;;4975193;28;20446;-61
2023/08/04 11:18:10;;;;;;;0.57;0.57;;;24.40;95.00;;;;;;4975502;28;20183;-61
2023/08/04 11:20:38;;;;;;;0.60;0.60;;;24.20;95.30;;;;;;4975251;28;20471;-61
2023/08/04 11:23:03;;;;;;;1.23;1.13;;;23.80;95.50;;;;;;4975308;28;20769;-61
2023/08/04 11:25:32;;;;;;;0.50;0.43;;;23.70;96.10;;;;;;4957245;28;20458;-60
2023/08/04 11:28:01;;;;;;;0.50;0.50;;;23.40;97.00;;;;;;4975293;28;20238;-62
2023/08/04 11:30:27;;;;;;;0.60;0.60;;;23.30;97.20;;;;;;4975232;28;20419;-61
2023/08/04 11:32:52;;;;;;;0.63;0.50;;;23.20;97.40;;;;;;4975375;28;20422;-61
2023/08/04 11:35:19;;;;;;;0.70;0.70;;;23.20;97.70;;;;;;4974390;28;20558;-61
2023/08/04 11:37:44;;;;;;;0.50;0.50;;;23.20;97.60;;;;;;4975103;28;20188;-61
2023/08/04 11:40:24;;;;;;;0.70;0.60;;;23.10;97.20;;;;;;4975138;28;20451;-61
2023/08/04 11:42:50;;;;;;;0.60;0.57;;;22.80;97.90;;;;;;4957658;28;20203;-61
2023/08/04 11:45:17;;;;;;;0.87;0.70;;;22.70;98.30;;;;;;4974049;28;20452;-62
2023/08/04 11:47:42;;;;;;;0.50;0.50;;;22.60;98.80;;;;;;4975015;28;20406;-62
2023/08/04 11:50:09;;;;;;;0.93;0.50;;;22.60;99.80;;;;;;4974886;28;20454;-62
2023/08/04 11:52:38;;;;;;;0.57;0.57;;;22.70;99.90;;;;;;4974905;28;20408;-62
2023/08/04 11:55:04;;;;;;;0.40;0.40;;;22.80;99.90;;;;;;4973662;28;20426;-62
2023/08/04 11:57:30;;;;;;;0.67;0.60;;;22.70;99.90;;;;;;4974849;28;20422;-62
2023/08/04 11:59:57;;;;;;;0.77;0.77;;;22.80;99.90;;;;;;4974650;28;20401;-62
2023/08/04 12:02:23;;;;;;;1.03;0.80;;;22.80;99.90;;;;;;4974555;28;20468;-61
2023/08/04 12:05:09;;;;;;;1.03;0.60;;;22.80;99.90;;;;;;4974017;28;20439;-61
2023/08/04 12:07:35;;;;;;;0.40;0.40;;;22.70;99.90;;;;;;4974509;28;20439;-63
2023/08/04 12:10:01;;;;;;;0.57;0.57;;;22.70;99.90;;;;;;4974509;28;20438;-60
2023/08/04 12:12:40;;;;;;;0.50;0.50;;;22.60;99.90;;;;;;4974516;28;20255;-61
2023/08/04 12:15:06;;;;;;;0.40;0.40;;;22.40;99.90;;;;;;4973546;28;20551;-61
2023/08/04 12:17:40;;;;;;;0.37;0.37;;;22.30;99.90;;;;;;4974358;28;20402;-61
2023/08/04 12:20:10;;;;;;;1.17;0.63;;;22.10;99.90;;;;;;4974604;28;20411;-62
2023/08/04 12:22:41;;;;;;;0.50;0.50;;;22.00;99.90;;;;;;4974511;28;20430;-62
2023/08/04 12:25:08;;;;;;;0.67;0.67;;;22.00;99.90;;;;;;4973462;28;20418;-62
2023/08/04 12:27:34;;;;;;;0.70;0.70;;;21.90;99.90;;;;;;4974501;28;20759;-62
2023/08/04 12:30:00;;;;;;;0.67;0.67;;;21.90;99.90;;;;;;4956934;28;20415;-62
2023/08/04 12:32:27;;;;;;;1.13;0.50;;;21.80;99.90;;;;;;4974454;28;20508;-62
2023/08/04 12:34:52;;;;;;;0.50;0.50;;;21.80;99.90;;;;;;4973577;28;20506;-62
2023/08/04 12:37:18;;;;;;;0.50;0.50;;;21.70;99.90;;;;;;4974548;28;20447;-61
2023/08/04 12:39:45;;;;;;;0.50;0.50;;;21.70;99.90;;;;;;4974570;28;20184;-62
2023/08/04 12:42:11;;;;;;;0.70;0.53;;;21.60;99.90;;;;;;4974274;28;20283;-61
2023/08/04 12:44:36;;;;;;;0.50;0.50;;;21.50;99.90;;;;;;4973756;28;20949;-61
2023/08/04 12:47:02;;;;;;;0.57;0.57;;;21.50;99.90;;;;;;4974341;28;20420;-61
2023/08/04 12:49:28;;;;;;;0.53;0.53;;;21.50;99.90;;;;;;4974450;28;20210;-61
2023/08/04 12:51:54;;;;;;;0.67;0.60;;;21.40;99.90;;;;;;4974200;28;20228;-61
2023/08/04 12:54:22;;;;;;;0.50;0.50;;;21.50;99.90;;;;;;4973529;28;20425;-62
2023/08/04 12:56:48;;;;;;;0.57;0.57;;;21.50;99.90;;;;;;4974387;28;20195;-62
2023/08/04 12:59:14;;;;;;;0.40;0.40;;;21.60;99.90;;;;;;4974282;28;20391;-63
2023/08/04 13:01:39;;;;;;;0.43;0.43;;;21.60;99.90;;;;;;4974253;28;20504;-61
2023/08/04 13:04:05;;;;;;;0.50;0.50;;;21.70;99.90;;;;;;4974147;28;20184;-62
2023/08/04 13:06:33;;;;;;;0.80;0.70;;;21.90;99.90;;;;;;4974266;28;20269;-62
2023/08/04 13:08:59;;;;;;;0.63;0.63;;;22.10;99.90;;;;;;4977983;28;20172;-62
2023/08/04 13:11:25;;;;;;;0.50;0.50;;;22.30;99.90;;;;;;4977794;28;20737;-62
2023/08/04 13:13:51;;;;;;;0.40;0.40;;;22.50;99.90;;;;;;4977262;28;20183;-62
2023/08/04 13:16:16;;;;;;;0.93;0.80;;;22.60;99.90;;;;;;4977648;28;20428;-62
2023/08/04 13:18:42;;;;;;;1.00;0.60;;;22.70;99.90;;;;;;4977727;28;20178;-62
2023/08/04 13:21:08;;;;;;;0.50;0.50;;;22.70;99.90;;;;;;4977434;28;20654;-62
2023/08/04 13:23:34;;;;;;;1.13;0.80;;;22.80;99.90;;;;;;4976957;28;20255;-62
2023/08/04 13:26:08;;;;;;;0.60;0.60;;;22.70;99.90;;;;;;4977472;28;20259;-61
2023/08/04 13:28:34;;;;;;;0.47;0.47;;;22.60;99.90;;;;;;4977701;28;20211;-61
2023/08/04 13:31:02;;;;;;;0.60;0.60;;;22.60;99.90;;;;;;4977804;28;20418;-61
2023/08/04 13:33:27;;;;;;;0.70;0.60;;;22.50;99.90;;;;;;4977101;28;20403;-61
2023/08/04 13:35:53;;;;;;;0.50;0.50;;;22.50;99.90;;;;;;4976923;28;20439;-62
2023/08/04 13:38:18;;;;;;;0.60;0.60;;;22.50;99.90;;;;;;4977283;28;20175;-62
2023/08/04 13:40:44;;;;;;;0.60;0.60;;;22.80;99.90;;;;;;4977370;28;20688;-61
2023/08/04 13:43:09;;;;;;;1.00;0.90;;;23.10;99.90;;;;;;4977209;28;20303;-62
2023/08/04 13:45:36;;;;;;;0.60;0.60;;;23.10;99.90;;;;;;4976376;28;20196;-62
2023/08/04 13:48:02;;;;;;;2.03;0.80;;;23.00;99.90;;;;;;4977153;28;20647;-62
2023/08/04 13:50:27;;;;;;;0.70;0.70;;;22.80;99.90;;;;;;4977092;28;20385;-62
2023/08/04 13:52:53;;;;;;;0.50;0.50;;;22.70;99.90;;;;;;4977342;28;20177;-63
2023/08/04 13:55:19;;;;;;;0.70;0.70;;;22.70;99.90;;;;;;4976203;28;20211;-60
2023/08/04 13:57:44;;;;;;;0.70;0.70;;;22.50;99.90;;;;;;4976952;28;20213;-62
2023/08/04 14:00:11;;;;;;;0.70;0.70;;;22.40;99.90;;;;;;4977138;28;20179;-62
2023/08/04 14:02:38;;;;;;;0.70;0.70;;;22.30;99.90;;;;;;4976375;28;20188;-61
2023/08/04 14:05:04;;;;;;;0.80;0.70;;;22.30;99.90;;;;;;4976456;28;20410;-62
2023/08/04 14:07:30;;;;;;;0.70;0.70;;;22.30;99.90;;;;;;4976649;28;21013;-61
2023/08/04 14:09:56;;;;;;;0.70;0.50;;;22.30;99.90;;;;;;4976918;28;20479;-62
2023/08/04 14:12:21;;;;;;;0.50;0.50;;;22.20;99.90;;;;;;4976423;28;20176;-62
2023/08/04 14:14:52;;;;;;;0.80;0.80;;;22.10;99.90;;;;;;4976090;28;20963;-62
2023/08/04 14:17:18;;;;;;;0.53;0.53;;;22.00;99.90;;;;;;4976483;28;20182;-62
2023/08/04 14:19:45;;;;;;;0.67;0.67;;;22.00;99.90;;;;;;4976227;28;20401;-62
2023/08/04 14:22:11;;;;;;;0.70;0.70;;;21.90;99.90;;;;;;4976179;28;20985;-64
2023/08/04 14:24:36;;;;;;;0.73;0.73;;;21.90;99.90;;;;;;4975941;28;20446;-62
2023/08/04 14:27:04;;;;;;;0.60;0.60;;;21.90;99.90;;;;;;4976313;28;20175;-62
2023/08/04 14:29:29;;;;;;;0.70;0.70;;;21.90;99.90;;;;;;4976398;28;20175;-61
2023/08/04 14:31:55;;;;;;;0.90;0.90;;;21.90;99.90;;;;;;4975758;28;20815;-62
2023/08/04 14:34:21;;;;;;;0.80;0.77;;;21.90;99.90;;;;;;4975952;28;20176;-62
2023/08/04 14:36:46;;;;;;;0.80;0.80;;;21.90;99.90;;;;;;4976234;28;20526;-62
2023/08/04 14:39:12;;;;;;;1.03;1.03;;;22.00;99.90;;;;;;4976160;28;20186;-62
2023/08/04 14:41:37;;;;;;;1.23;1.17;;;21.90;99.90;;;;;;4976218;28;20172;-61
2023/08/04 14:44:03;;;;;;;0.83;0.70;;;21.90;99.90;;;;;;4975247;28;20729;-61
2023/08/04 14:46:29;;;;;;;1.27;1.17;;;21.90;99.90;;;;;;4975710;28;20192;-62
2023/08/04 14:48:54;;;;;;;1.23;1.17;;;21.90;99.90;;;;;;4975850;28;20638;-62
2023/08/04 14:51:20;;;;;;;0.67;0.67;;;21.80;99.90;;;;;;4975840;28;20168;-62
2023/08/04 14:53:45;;;;;;;1.27;1.27;;;21.90;99.90;;;;;;4975576;28;20715;-62
2023/08/04 14:56:11;;;;;;;1.00;0.90;;;21.80;99.90;;;;;;4975994;28;20193;-62
2023/08/04 14:58:37;;;;;;;2.10;1.33;;;21.90;99.90;;;;;;4975443;28;20709;-63
2023/08/04 15:01:07;;;;;;;4.90;3.77;;;22.10;99.90;;;;;;4976234;28;20207;-62
2023/08/04 15:03:36;;;;;;;1.20;1.20;;;22.20;99.90;;;;;;4975425;28;20200;-62
2023/08/04 15:06:12;;;;;;;0.90;0.90;;;22.20;99.90;;;;;;4958037;28;20864;-62
2023/08/04 15:08:38;;;;;;;0.80;0.80;;;22.20;99.90;;;;;;4975455;28;20526;-62
2023/08/04 15:11:08;;;;;;;0.70;0.70;;;22.30;99.90;;;;;;4975704;28;20416;-61
2023/08/04 15:13:33;;;;;;;1.23;1.00;;;22.30;99.90;;;;;;4974969;28;20408;-62
2023/08/04 15:16:04;;;;;;;0.60;0.60;;;22.30;99.90;;;;;;4975293;28;20744;-62
2023/08/04 15:18:29;;;;;;;0.60;0.60;;;22.40;99.90;;;;;;4975111;28;20389;-61
2023/08/04 15:20:55;;;;;;;1.00;1.00;;;22.50;99.90;;;;;;4975424;28;20415;-62
2023/08/04 15:23:21;;;;;;;0.50;0.50;;;22.50;99.90;;;;;;4975335;28;20227;-62
2023/08/04 15:25:47;;;;;;;0.60;0.60;;;22.60;99.90;;;;;;4957456;28;20236;-66
2023/08/04 15:28:12;;;;;;;0.50;0.50;;;22.60;99.90;;;;;;4975154;28;20176;-61
2023/08/04 15:30:38;;;;;;;0.63;0.63;;;22.70;99.90;;;;;;4974422;28;20180;-62
2023/08/04 15:33:04;;;;;;;0.80;0.80;;;22.70;99.90;;;;;;4974831;28;20301;-62
2023/08/04 15:35:30;;;;;;;0.63;0.63;;;22.70;99.90;;;;;;4957080;28;20238;-62
2023/08/04 15:37:55;;;;;;;0.80;0.80;;;22.80;99.90;;;;;;4975179;28;20748;-62
2023/08/04 15:40:21;;;;;;;1.07;0.90;;;22.80;99.90;;;;;;4974792;28;20406;-62
2023/08/04 15:42:49;;;;;;;0.90;0.90;;;22.80;99.90;;;;;;4975253;28;20700;-62
2023/08/04 15:45:14;;;;;;;0.90;0.90;;;22.80;99.90;;;;;;4974453;28;20609;-62
2023/08/04 15:47:40;;;;;;;0.83;0.83;;;22.80;99.90;;;;;;4974679;28;20486;-62
2023/08/04 15:50:07;;;;;;;0.60;0.60;;;22.60;99.90;;;;;;4974349;28;20179;-61
2023/08/04 15:52:32;;;;;;;0.87;0.87;;;22.30;99.90;;;;;;4974604;28;20182;-62
2023/08/04 15:55:00;;;;;;;0.60;0.60;;;22.10;99.90;;;;;;4956685;28;20526;-61
2023/08/04 15:57:26;;;;;;;2.73;0.70;;;21.80;99.90;;;;;;4974500;28;20236;-61
2023/08/04 15:59:52;;;;;;;0.60;0.60;;;21.50;99.90;;;;;;4956746;28;20396;-61
2023/08/04 16:02:17;;;;;;;0.70;0.70;;;21.30;99.90;;;;;;4974765;28;20199;-61
2023/08/04 16:04:43;;;;;;;0.77;0.77;;;21.10;99.90;;;;;;4974189;28;20247;-61
2023/08/04 16:07:08;;;;;;;1.47;1.33;;;20.90;99.90;;;;;;4974373;28;20219;-62
2023/08/04 16:09:34;;;;;;;0.60;0.60;;;20.70;99.90;;;;;;4974244;28;20187;-61
2023/08/04 16:12:00;;;;;;;0.50;0.50;;;20.50;99.90;;;;;;4974515;28;20179;-61
2023/08/04 16:14:25;;;;;;;0.80;0.80;;;20.30;99.90;;;;;;4974153;28;20177;-61
2023/08/04 16:16:51;;;;;;;0.70;0.70;;;20.10;99.90;;;;;;4974845;28;20255;-61
2023/08/04 16:19:16;;;;;;;0.70;0.60;;;19.90;99.90;;;;;;4974276;28;20176;-61
2023/08/04 16:21:45;;;;;;;1.00;0.90;;;19.90;99.90;;;;;;4974666;28;20262;-61
2023/08/04 16:24:10;;;;;;;0.70;0.70;;;19.80;99.90;;;;;;4973943;28;20176;-61
2023/08/04 16:26:36;;;;;;;0.53;0.53;;;19.70;99.90;;;;;;4974921;28;20430;-61
2023/08/04 16:29:03;;;;;;;0.53;0.53;;;19.80;99.90;;;;;;4973946;28;20177;-61
2023/08/04 16:31:29;;;;;;;0.50;0.50;;;19.80;99.90;;;;;;4971690;28;20755;-61
2023/08/04 16:33:54;;;;;;;0.60;0.60;;;19.80;99.90;;;;;;4974091;28;20410;-61
2023/08/04 16:36:21;;;;;;;0.83;0.83;;;19.90;99.90;;;;;;4974333;28;20567;-61
2023/08/04 16:38:46;;;;;;;0.60;0.60;;;19.80;99.90;;;;;;4974192;28;20538;-61
2023/08/04 16:41:12;;;;;;;0.80;0.80;;;19.80;99.90;;;;;;4975282;28;20420;-61
2023/08/04 16:43:38;;;;;;;0.80;0.80;;;19.70;99.90;;;;;;4977951;28;20203;-61
2023/08/04 16:46:03;;;;;;;0.70;0.70;;;19.70;99.90;;;;;;4960787;28;20199;-61
2023/08/04 16:48:29;;;;;;;0.57;0.57;;;19.70;99.90;;;;;;4961051;28;20184;-61
2023/08/04 16:50:54;;;;;;;0.50;0.50;;;19.60;99.90;;;;;;4978052;28;20208;-61